Alice International Airport
KALI : rendu visible

Aérodrome :











RETROUVEZ-NOUS SUR...

 
LOGIN :

S'inscrire | Disclaimer

   EN    FR    IT 

 









Légende :    VFR   VFR Marginal   IFR   IFR Intensif   IFR Très Intensif
Visi : 
Plafond : 
>= 8 km
>= 3000ft
5 à 8 km
1000 à 3000 ft
1500m à 5 km
500 à 1000 ft
800 à 1500m
200 à 500 ft
< 800m
< 200 ft
Symboles :   Orages  Brouillard  Fortes neiges  Fortes précipitations  Vent > 20 kt






- Altitude de l'aérodrome : 178 ft


KALI - Alice International

DERNIER METAR :
  • 202353Z AUTO 14013KT 10SM CLR 24/20 A2987 RMK AO2 SLP112 T02440200 10311 20244 53013

METARs EXPIRÉS :
  • 202253Z AUTO 13018G24KT 10SM FEW047 26/19 A2986 RMK AO2 PK WND 14027/2158 SLP108 T02610194
  • 202153Z AUTO 14021G27KT 10SM CLR 29/18 A2983 RMK AO2 PK WND 13028/2104 SLP100 T02890183

TAF KALI
Valide du 21 à 00h jusqu'au 22 à 00h UTC


202340Z 2100/2124 14018G26KT P6SM FEW035 SCT250
FM210200 15014KT P6SM SCT025 OVC150 WS020/18045KT
FM210600 15010KT P6SM OVC020 WS020/18045KT
FM211400 17012G18KT P6SM BKN030 OVC150
FM211800 16017G22KT P6SM BKN035



MET'MAP, la Météo Aéronautique d'un coup d'oeil ! - Copyright ORBIFLY Décembre 2007 - Disclaimer

ORBIFLY MET'MAP TEAM :

Programmation & Développement : Alexandra Zaïnal
Conception & Développement : Baudouin d'Aumeries
Co-Programmation & Développement : Marc-Olivier Méhu
Soutien technique & logistique : Manuel Goepfert

Contact : metmap@orbifly.com




SOURCES & CREDITS :

   NOAA       Earth
Advisory